createdAt,value
2019-02-05T00:01:41.097Z,3.77
2019-02-05T00:04:10.195Z,3.82
2019-02-05T00:06:39.359Z,3.83
2019-02-05T00:09:10.130Z,3.71
2019-02-05T00:11:39.234Z,3.61
2019-02-05T00:14:08.303Z,3.70
2019-02-05T00:16:37.376Z,3.73
2019-02-05T00:19:06.446Z,3.70
2019-02-05T00:21:35.600Z,3.67
2019-02-05T00:24:04.676Z,3.67
2019-02-05T00:26:33.720Z,3.83
2019-02-05T00:29:02.745Z,3.83
2019-02-05T00:31:31.732Z,3.78
2019-02-05T00:34:00.717Z,3.74
2019-02-05T00:36:30.451Z,3.82
2019-02-05T00:39:02.151Z,3.88
2019-02-05T00:41:31.279Z,3.74
2019-02-05T00:44:00.180Z,3.85
2019-02-05T00:46:29.476Z,3.92
2019-02-05T00:48:58.410Z,3.93
2019-02-05T00:51:29.809Z,3.92
2019-02-05T00:53:59.675Z,3.88
2019-02-05T00:56:30.331Z,3.82
2019-02-05T00:58:59.397Z,3.93
2019-02-05T01:01:28.696Z,4.29
2019-02-05T01:03:58.098Z,4.09
2019-02-05T01:06:28.654Z,4.12
2019-02-05T01:08:57.818Z,4.09
2019-02-05T01:11:26.764Z,3.91
2019-02-05T01:13:55.894Z,3.88
2019-02-05T01:16:24.765Z,3.89
2019-02-05T01:18:54.091Z,3.86
2019-02-05T01:21:23.018Z,3.90
2019-02-05T01:23:51.972Z,3.82
2019-02-05T01:26:28.896Z,3.78
2019-02-05T01:28:49.795Z,3.85
2019-02-05T01:31:19.169Z,3.93
2019-02-05T01:33:48.220Z,3.96
2019-02-05T01:36:17.004Z,3.96
2019-02-05T01:38:45.973Z,3.99
2019-02-05T01:41:15.377Z,3.88
2019-02-05T01:43:44.325Z,4.35
2019-02-05T01:46:13.675Z,4.09
2019-02-05T01:48:42.608Z,4.05
2019-02-05T01:51:12.030Z,4.09
2019-02-05T01:53:40.867Z,4.05
2019-02-05T01:56:09.797Z,4.01
2019-02-05T01:58:38.691Z,4.13
2019-02-05T02:01:07.641Z,4.07
2019-02-05T02:03:36.577Z,3.97
2019-02-05T02:06:05.600Z,4.03
2019-02-05T02:08:34.438Z,4.07
2019-02-05T02:11:03.625Z,4.06
2019-02-05T02:13:35.651Z,4.05
2019-02-05T02:16:04.475Z,4.06
2019-02-05T02:18:33.410Z,4.14
2019-02-05T02:21:02.317Z,4.12
2019-02-05T02:23:31.261Z,4.15
2019-02-05T02:26:00.181Z,4.15
2019-02-05T02:28:29.114Z,4.06
2019-02-05T02:30:58.089Z,4.12
2019-02-05T02:33:26.983Z,4.06
2019-02-05T02:35:55.950Z,4.12
2019-02-05T02:38:25.627Z,4.45
2019-02-05T02:40:54.493Z,4.28
2019-02-05T02:43:23.403Z,4.29
2019-02-05T02:45:55.430Z,4.23
2019-02-05T02:48:24.281Z,4.22
2019-02-05T02:50:53.484Z,4.17
2019-02-05T02:53:23.178Z,4.26
2019-02-05T02:55:52.102Z,4.27
2019-02-05T02:58:21.053Z,4.26
2019-02-05T03:00:50.085Z,4.20
2019-02-05T03:03:21.765Z,4.18
2019-02-05T03:05:50.730Z,4.11
2019-02-05T03:08:19.978Z,4.49
2019-02-05T03:10:52.099Z,4.20
2019-02-05T03:13:21.048Z,4.60
2019-02-05T03:15:49.966Z,4.32
2019-02-05T03:18:18.931Z,4.30
2019-02-05T03:20:47.846Z,4.33
2019-02-05T03:23:17.459Z,4.27
2019-02-05T03:25:46.391Z,4.21
2019-02-05T03:28:16.086Z,4.28
2019-02-05T03:30:45.134Z,4.62
2019-02-05T03:33:14.085Z,4.26
2019-02-05T03:35:42.992Z,4.23
2019-02-05T03:38:11.914Z,4.18
2019-02-05T03:41:06.887Z,4.21
2019-02-05T03:43:40.070Z,4.15
2019-02-05T03:46:15.826Z,4.14
2019-02-05T03:48:48.542Z,4.22
2019-02-05T03:51:47.514Z,4.57
2019-02-05T03:55:09.356Z,4.33
2019-02-05T03:58:19.560Z,4.31
2019-02-05T04:01:57.351Z,4.24
2019-02-05T04:05:35.144Z,4.13
2019-02-05T04:08:33.605Z,4.14
2019-02-05T04:11:29.946Z,4.24
2019-02-05T04:14:27.121Z,4.07
2019-02-05T04:17:37.198Z,4.13
2019-02-05T04:21:00.073Z,4.16
2019-02-05T04:24:10.954Z,4.12
2019-02-05T04:27:09.875Z,4.09
2019-02-05T04:30:04.112Z,4.38
2019-02-05T04:33:05.416Z,4.23
2019-02-05T04:36:14.906Z,4.19
2019-02-05T04:39:13.075Z,4.06
2019-02-05T04:42:34.746Z,4.19
2019-02-05T04:45:39.426Z,4.11
2019-02-05T04:48:43.672Z,4.15
2019-02-05T04:51:59.139Z,4.13
2019-02-05T04:55:18.661Z,4.21
2019-02-05T04:58:09.775Z,4.04
2019-02-05T05:01:22.606Z,4.08
2019-02-05T05:04:21.434Z,4.11
2019-02-05T05:07:31.427Z,4.18
2019-02-05T05:10:00.736Z,4.28
2019-02-05T05:12:30.063Z,4.57
2019-02-05T05:14:59.887Z,4.35
2019-02-05T05:17:28.697Z,4.23
2019-02-05T05:19:57.613Z,4.25
2019-02-05T05:22:26.980Z,4.33
2019-02-05T05:24:55.958Z,4.68
2019-02-05T05:27:25.268Z,4.48
2019-02-05T05:29:54.202Z,4.30
2019-02-05T05:32:23.285Z,4.33
2019-02-05T05:34:52.116Z,4.37
2019-02-05T05:37:20.578Z,4.63
2019-02-05T05:39:49.584Z,4.54
2019-02-05T05:42:18.452Z,4.81
2019-02-05T05:44:47.384Z,4.59
2019-02-05T05:47:16.312Z,4.57
2019-02-05T05:49:45.217Z,4.50
2019-02-05T05:52:15.030Z,4.49
2019-02-05T05:54:43.973Z,4.42
2019-02-05T05:57:12.949Z,4.34
2019-02-05T05:59:41.861Z,4.49
2019-02-05T06:02:11.971Z,4.35
2019-02-05T06:04:40.916Z,4.48
2019-02-05T06:07:09.822Z,4.52
2019-02-05T06:09:38.785Z,4.32
2019-02-05T06:12:07.724Z,4.36
2019-02-05T06:14:36.722Z,4.32
2019-02-05T06:17:05.696Z,4.31
2019-02-05T06:19:34.772Z,4.28
2019-02-05T06:22:03.696Z,4.34
2019-02-05T06:24:32.681Z,4.76
2019-02-05T06:27:01.597Z,4.45
2019-02-05T06:29:30.532Z,4.52
2019-02-05T06:31:59.523Z,4.44
2019-02-05T06:34:28.683Z,4.31
2019-02-05T06:36:57.583Z,4.37
2019-02-05T06:39:26.910Z,4.30
2019-02-05T06:41:55.821Z,4.28
2019-02-05T06:44:24.789Z,4.29
2019-02-05T06:46:53.688Z,4.71
2019-02-05T06:49:22.606Z,4.50
2019-02-05T06:51:52.358Z,4.41
2019-02-05T06:54:21.642Z,4.44
2019-02-05T06:56:50.544Z,4.48
2019-02-05T06:59:19.488Z,4.34
2019-02-05T07:01:48.637Z,4.41
2019-02-05T07:04:17.563Z,4.28
2019-02-05T07:06:46.535Z,4.34
2019-02-05T07:09:15.515Z,4.43
2019-02-05T07:11:44.521Z,4.43
2019-02-05T07:14:13.476Z,4.41
2019-02-05T07:16:42.456Z,4.46
2019-02-05T07:19:11.471Z,4.53
2019-02-05T07:21:40.711Z,4.53
2019-02-05T07:24:09.687Z,4.47
2019-02-05T07:26:38.793Z,4.44
2019-02-05T07:29:07.852Z,4.41
2019-02-05T07:31:36.821Z,4.45
2019-02-05T07:34:05.823Z,4.43
2019-02-05T07:36:34.801Z,4.57
2019-02-05T07:39:04.229Z,4.50
2019-02-05T07:41:33.397Z,4.58
2019-02-05T07:44:02.219Z,4.58
2019-02-05T07:46:31.183Z,4.48
2019-02-05T07:49:00.490Z,4.43
2019-02-05T07:51:29.462Z,4.90
2019-02-05T07:53:58.410Z,5.07
2019-02-05T07:56:27.390Z,4.77
2019-02-05T07:58:56.523Z,4.78
2019-02-05T08:01:26.093Z,4.76
2019-02-05T08:03:55.099Z,4.81
2019-02-05T08:06:24.107Z,4.77
2019-02-05T08:08:53.595Z,4.80
2019-02-05T08:11:22.581Z,4.76
2019-02-05T08:13:52.340Z,4.77
2019-02-05T08:16:22.697Z,4.71
2019-02-05T08:18:51.669Z,4.67
2019-02-05T08:21:20.654Z,4.71
2019-02-05T08:23:49.646Z,4.67
2019-02-05T08:26:19.022Z,4.72
2019-02-05T08:28:48.053Z,4.80
2019-02-05T08:31:17.056Z,4.83
2019-02-05T08:33:46.281Z,4.75
2019-02-05T08:36:16.105Z,4.71
2019-02-05T08:38:45.084Z,5.08
2019-02-05T08:41:14.307Z,4.92
2019-02-05T08:43:43.291Z,4.83
2019-02-05T08:46:12.269Z,5.28
2019-02-05T08:48:41.252Z,5.04
2019-02-05T08:51:10.243Z,5.08
2019-02-05T08:53:39.308Z,5.08
2019-02-05T08:56:08.378Z,5.07
2019-02-05T08:58:37.461Z,5.05
2019-02-05T09:01:06.828Z,5.12
2019-02-05T09:03:35.799Z,5.08
2019-02-05T09:06:05.099Z,5.04
2019-02-05T09:08:34.068Z,4.98
2019-02-05T09:11:03.063Z,5.06
2019-02-05T09:13:32.056Z,5.02
2019-02-05T09:16:01.042Z,5.05
2019-02-05T09:18:30.034Z,5.11
2019-02-05T09:20:59.099Z,5.17
2019-02-05T09:23:28.077Z,5.15
2019-02-05T09:25:57.074Z,5.18
2019-02-05T09:28:26.078Z,5.22
2019-02-05T09:30:55.057Z,5.18
2019-02-05T09:33:24.055Z,5.20
2019-02-05T09:35:53.020Z,5.23
2019-02-05T09:38:22.002Z,5.28
2019-02-05T09:40:50.998Z,5.21
2019-02-05T09:43:23.074Z,5.31
2019-02-05T09:45:52.062Z,5.35
2019-02-05T09:48:21.044Z,5.28
2019-02-05T09:50:50.092Z,5.74
2019-02-05T09:53:19.089Z,5.42
2019-02-05T09:55:48.085Z,5.51
2019-02-05T09:58:17.115Z,5.46
2019-02-05T10:00:46.031Z,5.48
2019-02-05T10:03:14.971Z,5.44
2019-02-05T10:05:43.971Z,5.39
2019-02-05T10:08:12.923Z,5.47
2019-02-05T10:10:41.929Z,5.38
2019-02-05T10:13:10.852Z,5.42
2019-02-05T10:15:40.478Z,5.37
2019-02-05T10:18:11.022Z,5.45
2019-02-05T10:20:40.102Z,5.43
2019-02-05T10:23:09.515Z,5.40
2019-02-05T10:25:38.590Z,5.38
2019-02-05T10:28:07.753Z,5.85
2019-02-05T10:30:39.325Z,5.47
2019-02-05T10:33:08.870Z,5.38
2019-02-05T10:35:38.010Z,5.35
2019-02-05T10:38:07.229Z,5.44
2019-02-05T10:40:36.328Z,5.45
2019-02-05T10:43:06.146Z,5.41
2019-02-05T10:45:35.226Z,5.47
2019-02-05T10:48:04.364Z,5.54
2019-02-05T10:50:33.296Z,5.51
2019-02-05T10:53:02.278Z,5.52
2019-02-05T10:55:31.401Z,5.56
2019-02-05T10:58:00.327Z,5.62
2019-02-05T11:00:30.478Z,5.88
2019-02-05T11:03:01.400Z,6.15
2019-02-05T11:05:30.988Z,5.87
2019-02-05T11:08:00.056Z,5.80
2019-02-05T11:10:28.982Z,5.89
2019-02-05T11:12:57.902Z,5.86
2019-02-05T11:15:28.902Z,5.63
2019-02-05T11:17:58.138Z,5.80
2019-02-05T11:20:27.515Z,5.90
2019-02-05T11:22:56.497Z,5.88
2019-02-05T11:25:25.505Z,5.83
2019-02-05T11:27:54.465Z,5.88
2019-02-05T11:30:32.187Z,5.93
2019-02-05T11:33:01.176Z,6.01
2019-02-05T11:35:30.121Z,6.03
2019-02-05T11:37:59.094Z,6.00
2019-02-05T11:40:30.355Z,6.00
2019-02-05T11:42:59.353Z,6.04
2019-02-05T11:45:28.302Z,6.10
2019-02-05T11:47:57.797Z,6.08
2019-02-05T11:50:26.751Z,6.03
2019-02-05T11:52:55.759Z,6.07
2019-02-05T11:55:25.857Z,5.97
2019-02-05T11:57:54.757Z,5.94
2019-02-05T12:00:32.627Z,5.91
2019-02-05T12:02:58.563Z,5.99
2019-02-05T12:05:27.533Z,5.93
2019-02-05T12:07:56.879Z,5.71
2019-02-05T12:10:25.889Z,5.85
2019-02-05T12:12:54.911Z,5.73
2019-02-05T12:15:23.864Z,5.78
2019-02-05T12:17:52.830Z,5.76
2019-02-05T12:20:21.869Z,5.66
2019-02-05T12:22:50.860Z,5.59
2019-02-05T12:25:19.804Z,5.79
2019-02-05T12:27:48.808Z,5.81
2019-02-05T12:30:26.605Z,5.82
2019-02-05T12:32:55.620Z,5.81
2019-02-05T12:35:24.639Z,5.92
2019-02-05T12:37:53.616Z,5.90
2019-02-05T12:40:22.899Z,5.94
2019-02-05T12:42:51.898Z,6.02
2019-02-05T12:45:23.059Z,6.02
2019-02-05T12:47:52.110Z,6.01
2019-02-05T12:50:23.279Z,6.05
2019-02-05T12:52:52.305Z,6.09
2019-02-05T12:55:22.100Z,6.15
2019-02-05T12:57:51.073Z,6.19
2019-02-05T13:00:25.999Z,6.25
2019-02-05T13:02:56.000Z,6.18
2019-02-05T13:05:24.939Z,6.58
2019-02-05T13:07:54.221Z,6.76
2019-02-05T13:10:25.420Z,6.35
2019-02-05T13:12:54.419Z,6.24
2019-02-05T13:15:23.703Z,6.71
2019-02-05T13:17:52.672Z,6.38
2019-02-05T13:20:23.840Z,6.29
2019-02-05T13:22:53.728Z,6.16
2019-02-05T13:25:24.562Z,6.02
2019-02-05T13:27:53.536Z,6.03
2019-02-05T13:30:30.424Z,5.98
2019-02-05T13:32:59.407Z,5.98
2019-02-05T13:35:28.398Z,6.46
2019-02-05T13:37:59.156Z,6.28
2019-02-05T13:40:28.168Z,6.14
2019-02-05T13:42:57.578Z,6.07
2019-02-05T13:45:28.103Z,6.15
2019-02-05T13:47:57.117Z,6.06
2019-02-05T13:50:32.976Z,6.04
2019-02-05T13:52:56.748Z,6.04
2019-02-05T13:55:27.647Z,6.51
2019-02-05T13:57:57.058Z,6.30
2019-02-05T14:00:37.824Z,6.28
2019-02-05T14:03:09.166Z,6.19
2019-02-05T14:05:38.751Z,6.17
2019-02-05T14:08:07.743Z,6.18
2019-02-05T14:10:36.990Z,6.11
2019-02-05T14:13:06.911Z,6.12
2019-02-05T14:15:38.169Z,6.12
2019-02-05T14:18:09.052Z,6.18
2019-02-05T14:20:38.742Z,6.12
2019-02-05T14:23:08.332Z,6.06
2019-02-05T14:25:37.611Z,6.05
2019-02-05T14:28:06.590Z,6.10
2019-02-05T14:30:39.332Z,6.05
2019-02-05T14:33:08.619Z,6.07
2019-02-05T14:35:37.881Z,6.11
2019-02-05T14:38:08.345Z,6.08
2019-02-05T14:40:38.906Z,6.07
2019-02-05T14:43:09.281Z,6.06
2019-02-05T14:45:38.587Z,6.01
2019-02-05T14:48:08.345Z,6.12
2019-02-05T14:50:37.765Z,6.16
2019-02-05T14:53:07.579Z,6.17
2019-02-05T14:55:36.878Z,6.05
2019-02-05T14:58:07.783Z,6.12
2019-02-05T15:00:39.887Z,6.13
2019-02-05T15:03:10.498Z,6.07
2019-02-05T15:05:40.329Z,5.98
2019-02-05T15:08:10.128Z,6.09
2019-02-05T15:10:39.311Z,6.10
2019-02-05T15:13:08.630Z,6.10
2019-02-05T15:15:37.677Z,6.09
2019-02-05T15:18:08.793Z,6.08
2019-02-05T15:20:43.339Z,6.04
2019-02-05T15:23:12.959Z,6.43
2019-02-05T15:25:42.065Z,6.17
2019-02-05T15:28:11.041Z,6.20
2019-02-05T15:30:41.612Z,6.16
2019-02-05T15:33:22.206Z,6.18
2019-02-05T15:35:53.894Z,6.20
2019-02-05T15:38:22.920Z,6.21
2019-02-05T15:40:52.175Z,6.16
2019-02-05T15:43:21.176Z,6.09
2019-02-05T15:45:50.210Z,6.08
2019-02-05T15:48:19.193Z,5.95
2019-02-05T15:50:48.153Z,5.87
2019-02-05T15:53:17.212Z,5.84
2019-02-05T15:55:47.042Z,5.83
2019-02-05T15:58:16.064Z,5.73
2019-02-05T16:00:45.348Z,5.86
2019-02-05T16:03:14.330Z,5.84
2019-02-05T16:05:43.700Z,5.91
2019-02-05T16:08:12.638Z,5.90
2019-02-05T16:10:41.666Z,5.92
2019-02-05T16:13:15.424Z,6.32
2019-02-05T16:15:44.387Z,6.07
2019-02-05T16:18:13.357Z,6.02
2019-02-05T16:20:42.738Z,5.88
2019-02-05T16:23:11.688Z,5.89
2019-02-05T16:25:40.688Z,5.91
2019-02-05T16:28:09.674Z,5.91
2019-02-05T16:30:38.697Z,5.95
2019-02-05T16:33:08.081Z,5.92
2019-02-05T16:35:37.121Z,5.96
2019-02-05T16:38:06.894Z,5.89
2019-02-05T16:40:36.057Z,5.93
2019-02-05T16:43:06.240Z,5.89
2019-02-05T16:45:35.332Z,5.81
2019-02-05T16:48:04.311Z,5.83
2019-02-05T16:50:36.119Z,5.86
2019-02-05T16:53:06.335Z,5.93
2019-02-05T16:55:36.604Z,5.90
2019-02-05T16:58:06.879Z,5.90
2019-02-05T17:00:35.910Z,5.91
2019-02-05T17:03:05.465Z,5.92
2019-02-05T17:05:36.157Z,5.97
2019-02-05T17:08:05.145Z,5.98
2019-02-05T17:10:36.135Z,5.98
2019-02-05T17:13:05.503Z,5.86
2019-02-05T17:15:35.439Z,5.93
2019-02-05T17:18:04.713Z,5.95
2019-02-05T17:20:33.747Z,5.85
2019-02-05T17:23:02.742Z,5.82
2019-02-05T17:25:31.732Z,5.87
2019-02-05T17:28:01.542Z,5.91
2019-02-05T17:30:42.430Z,5.90
2019-02-05T17:33:11.571Z,5.92
2019-02-05T17:35:40.558Z,5.92
2019-02-05T17:38:18.061Z,5.93
2019-02-05T17:40:47.974Z,6.27
2019-02-05T17:43:27.219Z,6.00
2019-02-05T17:46:05.920Z,6.00
2019-02-05T17:48:33.632Z,5.92
2019-02-05T17:51:02.719Z,5.97
2019-02-05T17:53:31.773Z,6.06
2019-02-05T17:56:00.840Z,6.07
2019-02-05T17:58:29.867Z,6.35
2019-02-05T18:01:02.361Z,6.18
2019-02-05T18:03:31.919Z,6.49
2019-02-05T18:06:01.655Z,6.10
2019-02-05T18:08:30.681Z,6.03
2019-02-05T18:11:00.346Z,5.93
2019-02-05T18:13:29.293Z,5.95
2019-02-05T18:16:00.625Z,5.88
2019-02-05T18:18:29.650Z,5.79
2019-02-05T18:20:58.668Z,5.85
2019-02-05T18:23:27.637Z,5.83
2019-02-05T18:25:56.604Z,5.92
2019-02-05T18:28:25.667Z,5.70
2019-02-05T18:30:54.611Z,5.85
2019-02-05T18:33:23.595Z,5.95
2019-02-05T18:35:52.911Z,6.01
2019-02-05T18:38:22.521Z,5.92
2019-02-05T18:40:51.510Z,5.91
2019-02-05T18:43:20.499Z,5.81
2019-02-05T18:45:49.468Z,5.76
2019-02-05T18:48:18.449Z,5.88
2019-02-05T18:50:47.444Z,5.84
2019-02-05T18:53:16.750Z,5.88
2019-02-05T18:55:45.845Z,5.95
2019-02-05T18:58:14.816Z,5.83
2019-02-05T19:00:43.911Z,5.93
2019-02-05T19:03:15.980Z,5.85
2019-02-05T19:05:41.849Z,5.92
2019-02-05T19:08:10.904Z,5.90
2019-02-05T19:10:39.918Z,5.93
2019-02-05T19:13:10.243Z,5.94
2019-02-05T19:15:39.203Z,5.80
2019-02-05T19:18:08.508Z,5.92
2019-02-05T19:20:37.500Z,5.61
2019-02-05T19:23:08.014Z,5.82
2019-02-05T19:26:14.445Z,5.62
2019-02-05T19:28:44.227Z,5.72
2019-02-05T19:31:22.020Z,5.81
2019-02-05T19:33:50.997Z,5.86
2019-02-05T19:36:20.062Z,5.79
2019-02-05T19:38:49.076Z,5.74
2019-02-05T19:41:18.071Z,5.80
2019-02-05T19:43:47.019Z,5.68
2019-02-05T19:46:27.069Z,5.62
2019-02-05T19:49:09.831Z,5.61
2019-02-05T19:51:40.495Z,5.65
2019-02-05T19:54:13.079Z,5.59
2019-02-05T19:56:42.047Z,5.46
2019-02-05T19:59:12.340Z,5.48
2019-02-05T20:01:42.173Z,5.52
2019-02-05T20:04:11.268Z,5.53
2019-02-05T20:06:40.351Z,5.50
2019-02-05T20:09:12.430Z,5.40
2019-02-05T20:11:41.514Z,5.54
2019-02-05T20:14:10.926Z,5.47
2019-02-05T20:16:39.964Z,5.48
2019-02-05T20:19:08.913Z,5.54
2019-02-05T20:21:37.914Z,5.90
2019-02-05T20:24:06.967Z,5.64
2019-02-05T20:26:35.994Z,5.54
2019-02-05T20:29:05.004Z,5.56
2019-02-05T20:31:35.301Z,5.57
2019-02-05T20:34:04.451Z,5.57
2019-02-05T20:36:33.806Z,5.62
2019-02-05T20:39:27.381Z,5.63
2019-02-05T20:41:56.458Z,5.49
2019-02-05T20:44:25.823Z,5.51
2019-02-05T20:46:55.071Z,5.54
2019-02-05T20:49:24.168Z,5.57
2019-02-05T20:51:53.430Z,5.61
2019-02-05T20:54:22.547Z,5.94
2019-02-05T20:56:52.167Z,5.69
2019-02-05T20:59:46.461Z,5.72
2019-02-05T21:02:15.476Z,5.61
2019-02-05T21:04:48.522Z,5.66
2019-02-05T21:07:13.418Z,5.59
2019-02-05T21:09:47.331Z,5.61
2019-02-05T21:12:16.449Z,5.55
2019-02-05T21:14:46.297Z,5.50
2019-02-05T21:17:15.272Z,5.53
2019-02-05T21:19:48.841Z,5.52
2019-02-05T21:22:17.920Z,5.48
2019-02-05T21:24:47.199Z,5.48
2019-02-05T21:27:16.305Z,5.60
2019-02-05T21:29:45.433Z,5.61
2019-02-05T21:32:14.619Z,5.53
2019-02-05T21:34:43.706Z,5.58
2019-02-05T21:37:12.981Z,5.56
2019-02-05T21:39:41.988Z,5.63
2019-02-05T21:42:11.125Z,5.59
2019-02-05T21:44:40.325Z,5.67
2019-02-05T21:47:09.452Z,5.67
2019-02-05T21:49:38.720Z,5.58
2019-02-05T21:52:07.890Z,5.98
2019-02-05T21:54:37.098Z,5.83
2019-02-05T21:57:06.169Z,5.78
2019-02-05T21:59:35.354Z,5.73
2019-02-05T22:02:04.542Z,5.72
2019-02-05T22:04:36.473Z,5.71
2019-02-05T22:07:05.721Z,5.70
2019-02-05T22:09:34.827Z,5.56
2019-02-05T22:12:03.999Z,5.51
2019-02-05T22:14:33.075Z,5.47
2019-02-05T22:17:02.199Z,5.51
2019-02-05T22:19:31.281Z,5.46
2019-02-05T22:22:00.376Z,5.30
2019-02-05T22:24:29.333Z,5.32
2019-02-05T22:26:58.312Z,5.33
2019-02-05T22:29:27.399Z,5.14
2019-02-05T22:31:56.328Z,5.42
2019-02-05T22:34:25.296Z,5.13
2019-02-05T22:36:54.282Z,5.11
2019-02-05T22:39:23.307Z,5.43
2019-02-05T22:41:52.379Z,5.56
2019-02-05T22:44:21.325Z,5.68
2019-02-05T22:46:50.365Z,5.37
2019-02-05T22:49:19.662Z,5.24
2019-02-05T22:51:48.683Z,5.15
2019-02-05T22:54:17.699Z,5.01
2019-02-05T22:56:46.693Z,5.08
2019-02-05T22:59:15.606Z,5.03
2019-02-05T23:01:51.045Z,4.98
2019-02-05T23:04:38.088Z,4.96
2019-02-05T23:07:13.228Z,4.88
2019-02-05T23:10:03.041Z,4.80
2019-02-05T23:12:36.543Z,4.92
2019-02-05T23:15:18.340Z,4.86
2019-02-05T23:17:47.348Z,5.14
2019-02-05T23:20:18.349Z,4.91
2019-02-05T23:22:47.353Z,4.83
2019-02-05T23:25:16.295Z,4.83
2019-02-05T23:27:45.621Z,4.78
2019-02-05T23:30:17.774Z,4.76
2019-02-05T23:32:46.660Z,5.06
2019-02-05T23:35:15.724Z,4.81
2019-02-05T23:37:44.691Z,4.82
2019-02-05T23:40:14.044Z,4.75
2019-02-05T23:42:42.981Z,4.70
2019-02-05T23:45:12.160Z,4.61
2019-02-05T23:47:41.093Z,4.93
2019-02-05T23:50:12.672Z,4.67
2019-02-05T23:52:41.640Z,4.66
2019-02-05T23:55:15.102Z,4.71
2019-02-05T23:57:44.407Z,4.67
